Time;durP1;ratioP1;P1;durP2;ratioP2;P2;SDS_P1;SDS_P2;PMS_P1;PMS_P2;Temp;Humidity;BMP_temperature;BMP_pressure;BME280_temperature;BME280_humidity;BME280_pressure;Samples;Min_cycle;Max_cycle;Signal;HPM_P1;HPM_P2
2021/08/05 00:00:54;;;;;;;2.50;2.17;;;19.70;67.80;;;;;;5052655;28;20108;-75
2021/08/05 00:03:19;;;;;;;2.75;2.30;;;19.70;67.70;;;;;;5052057;28;20100;-77
2021/08/05 00:05:44;;;;;;;2.70;2.10;;;19.70;67.50;;;;;;5051900;28;20361;-75
2021/08/05 00:08:10;;;;;;;2.80;2.30;;;19.70;67.50;;;;;;5052400;28;20043;-75
2021/08/05 00:10:36;;;;;;;3.97;2.33;;;19.80;67.60;;;;;;5052689;28;20025;-75
2021/08/05 00:13:01;;;;;;;2.25;2.05;;;19.70;67.70;;;;;;5052360;28;20163;-75
2021/08/05 00:15:27;;;;;;;2.30;2.10;;;19.70;67.70;;;;;;5052686;28;20052;-75
2021/08/05 00:17:52;;;;;;;2.83;1.95;;;19.80;67.70;;;;;;5052372;28;20025;-75
2021/08/05 00:20:18;;;;;;;1.95;1.75;;;19.80;67.70;;;;;;5052623;28;20395;-76
2021/08/05 00:22:46;;;;;;;3.20;2.42;;;19.80;67.70;;;;;;5051980;28;20021;-76
2021/08/05 00:25:12;;;;;;;3.88;2.20;;;19.70;67.60;;;;;;5052594;28;20029;-76
2021/08/05 00:27:37;;;;;;;2.70;2.25;;;19.80;67.70;;;;;;5050465;28;20033;-75
2021/08/05 00:30:04;;;;;;;2.90;2.33;;;19.70;67.60;;;;;;5052417;28;20025;-75
2021/08/05 00:32:30;;;;;;;2.60;2.40;;;19.80;67.70;;;;;;5052043;28;20484;-75
2021/08/05 00:34:55;;;;;;;2.38;2.17;;;19.80;67.70;;;;;;5050862;28;20020;-75
2021/08/05 00:37:21;;;;;;;2.35;2.10;;;19.80;67.70;;;;;;5051240;28;20614;-75
2021/08/05 00:39:49;;;;;;;2.88;2.40;;;19.70;67.70;;;;;;5052052;28;20104;-75
2021/08/05 00:42:15;;;;;;;2.83;2.55;;;19.80;67.70;;;;;;5040093;28;20037;-76
2021/08/05 00:44:40;;;;;;;3.10;2.47;;;19.80;67.70;;;;;;5043294;28;20043;-76
2021/08/05 00:47:06;;;;;;;1.95;1.85;;;19.80;67.70;;;;;;5043046;28;20041;-74
2021/08/05 00:49:31;;;;;;;3.22;2.60;;;19.70;67.80;;;;;;5042414;28;20039;-74
2021/08/05 00:51:57;;;;;;;2.92;2.50;;;19.70;68.00;;;;;;5043539;28;20067;-74
2021/08/05 00:54:23;;;;;;;3.75;2.20;;;19.70;68.10;;;;;;5040016;28;20033;-76
2021/08/05 00:56:49;;;;;;;2.40;2.20;;;19.60;68.10;;;;;;5043180;28;20439;-76
2021/08/05 00:59:14;;;;;;;2.30;2.10;;;19.60;68.20;;;;;;5044832;28;20029;-75
2021/08/05 01:01:45;;;;;;;2.10;1.90;;;19.60;68.20;;;;;;5043207;28;20037;-75
2021/08/05 01:04:13;;;;;;;2.20;2.00;;;19.50;68.20;;;;;;5045802;28;20025;-75
2021/08/05 01:07:06;;;;;;;2.75;2.20;;;19.50;68.40;;;;;;5043267;28;20025;-76
2021/08/05 01:10:00;;;;;;;2.63;2.42;;;19.40;68.50;;;;;;5041068;28;20033;-76
2021/08/05 01:12:55;;;;;;;2.33;2.13;;;19.40;68.50;;;;;;5049602;28;20047;-75
2021/08/05 01:15:23;;;;;;;2.75;2.47;;;19.30;68.70;;;;;;5048863;28;20247;-75
2021/08/05 01:17:52;;;;;;;3.47;2.28;;;19.30;68.80;;;;;;5040049;28;20025;-75
2021/08/05 01:20:21;;;;;;;2.38;2.10;;;19.30;68.90;;;;;;5048739;28;20406;-75
2021/08/05 01:22:57;;;;;;;2.25;2.05;;;19.20;69.00;;;;;;5051084;28;20021;-75
2021/08/05 01:25:43;;;;;;;2.85;2.47;;;19.20;69.30;;;;;;5040053;28;20033;-76
2021/08/05 01:28:10;;;;;;;2.30;2.10;;;19.20;69.40;;;;;;5050813;28;20452;-75
2021/08/05 01:30:37;;;;;;;3.05;2.40;;;19.10;69.40;;;;;;5051584;28;20059;-76
2021/08/05 01:33:03;;;;;;;3.35;2.38;;;19.10;69.50;;;;;;5050154;28;20079;-75
2021/08/05 01:35:29;;;;;;;4.07;2.42;;;19.00;69.60;;;;;;5051676;28;20091;-77
2021/08/05 01:37:55;;;;;;;2.90;2.60;;;19.00;69.60;;;;;;5049041;28;20021;-76
2021/08/05 01:40:22;;;;;;;2.97;2.67;;;19.00;69.70;;;;;;5050862;28;20048;-75
2021/08/05 01:42:48;;;;;;;3.13;2.83;;;18.90;69.80;;;;;;5050548;28;20070;-76
2021/08/05 01:45:16;;;;;;;2.78;2.38;;;18.90;69.90;;;;;;5051013;28;20147;-76
2021/08/05 01:47:42;;;;;;;3.10;2.80;;;18.90;69.90;;;;;;5050798;28;20093;-76
2021/08/05 01:50:12;;;;;;;3.60;2.95;;;18.80;69.90;;;;;;5048741;28;20028;-75
2021/08/05 01:52:38;;;;;;;3.42;3.08;;;18.80;70.00;;;;;;5043424;28;20506;-76
2021/08/05 01:55:07;;;;;;;3.10;2.80;;;18.80;70.00;;;;;;5045852;28;20064;-76
2021/08/05 01:57:32;;;;;;;3.20;2.90;;;18.80;70.00;;;;;;5049640;28;20029;-75
2021/08/05 01:59:58;;;;;;;3.33;3.03;;;18.80;70.00;;;;;;5050591;28;20487;-74
2021/08/05 02:02:24;;;;;;;4.05;3.20;;;18.70;70.00;;;;;;5051145;28;20512;-76
2021/08/05 02:05:06;;;;;;;4.05;3.38;;;18.70;70.10;;;;;;5043793;28;20021;-75
2021/08/05 02:07:46;;;;;;;3.58;3.22;;;18.70;70.30;;;;;;5050488;28;20123;-74
2021/08/05 02:10:21;;;;;;;3.63;3.25;;;18.70;70.20;;;;;;5049333;28;20424;-75
2021/08/05 02:12:53;;;;;;;4.82;3.33;;;18.70;70.30;;;;;;5043037;28;20070;-75
2021/08/05 02:15:19;;;;;;;3.58;3.22;;;18.70;70.20;;;;;;5044602;28;20024;-75
2021/08/05 02:17:45;;;;;;;3.65;3.28;;;18.70;70.10;;;;;;5050367;28;21742;-75
2021/08/05 02:20:12;;;;;;;3.30;3.00;;;18.70;70.90;;;;;;5049318;28;20021;-75
2021/08/05 02:22:42;;;;;;;4.45;3.97;;;18.60;70.30;;;;;;5040797;28;20022;-75
2021/08/05 02:25:09;;;;;;;3.70;3.38;;;18.60;70.70;;;;;;5050225;28;20115;-75
2021/08/05 02:27:36;;;;;;;4.60;3.45;;;18.60;70.80;;;;;;5054344;28;20040;-75
2021/08/05 02:30:03;;;;;;;3.75;3.35;;;18.50;70.90;;;;;;5053825;28;20021;-75
2021/08/05 02:32:29;;;;;;;3.17;2.63;;;18.50;70.90;;;;;;5054687;28;20157;-75
2021/08/05 02:34:57;;;;;;;3.22;2.80;;;18.50;70.90;;;;;;5054538;28;20017;-77
2021/08/05 02:37:22;;;;;;;3.20;2.90;;;18.50;70.90;;;;;;5042592;28;20518;-76
2021/08/05 02:39:48;;;;;;;3.05;2.78;;;18.50;70.90;;;;;;5040583;28;20014;-76
2021/08/05 02:42:14;;;;;;;3.75;3.03;;;18.50;70.80;;;;;;5053875;28;20043;-76
2021/08/05 02:44:39;;;;;;;2.97;2.75;;;18.50;70.70;;;;;;5053353;28;20467;-76
2021/08/05 02:47:05;;;;;;;2.75;2.45;;;18.50;70.60;;;;;;5045373;28;20029;-77
2021/08/05 02:49:33;;;;;;;2.80;2.50;;;18.50;70.60;;;;;;5052222;28;20025;-78
2021/08/05 02:51:59;;;;;;;3.00;2.70;;;18.60;70.50;;;;;;5054380;28;20033;-77
2021/08/05 02:54:24;;;;;;;2.65;2.45;;;18.60;70.40;;;;;;5053807;28;20024;-75
2021/08/05 02:56:50;;;;;;;2.63;2.42;;;18.50;70.40;;;;;;5041417;28;20025;-76
2021/08/05 02:59:16;;;;;;;2.70;2.42;;;18.50;70.60;;;;;;5051936;28;20044;-75
2021/08/05 03:01:42;;;;;;;3.55;2.70;;;18.50;70.80;;;;;;5053850;28;20120;-76
2021/08/05 03:04:09;;;;;;;3.45;3.15;;;18.40;70.90;;;;;;5054359;28;20396;-75
2021/08/05 03:06:35;;;;;;;3.20;2.85;;;18.40;71.20;;;;;;5046526;28;20388;-76
2021/08/05 03:09:01;;;;;;;3.67;3.28;;;18.30;71.30;;;;;;5046915;28;20028;-76
2021/08/05 03:11:26;;;;;;;4.13;3.15;;;18.30;71.60;;;;;;5053223;28;20033;-76
2021/08/05 03:13:52;;;;;;;3.00;2.70;;;18.30;71.50;;;;;;5053581;28;20082;-76
2021/08/05 03:16:18;;;;;;;3.35;3.05;;;18.40;71.40;;;;;;5052760;28;20060;-77
2021/08/05 03:18:43;;;;;;;2.83;2.53;;;18.30;71.60;;;;;;5051805;28;20037;-78
2021/08/05 03:21:09;;;;;;;3.35;2.90;;;18.40;71.40;;;;;;5040837;28;20017;-77
2021/08/05 03:23:35;;;;;;;3.08;2.65;;;18.40;71.20;;;;;;5052042;28;20036;-78
2021/08/05 03:26:01;;;;;;;3.47;3.00;;;18.40;71.10;;;;;;5052346;28;20033;-78
2021/08/05 03:28:26;;;;;;;3.67;3.30;;;18.50;71.20;;;;;;5052800;28;20044;-77
2021/08/05 03:30:52;;;;;;;4.80;3.47;;;18.50;71.30;;;;;;5053168;28;20049;-76
2021/08/05 03:33:17;;;;;;;2.83;2.55;;;18.50;71.30;;;;;;5053111;28;20021;-76
2021/08/05 03:35:43;;;;;;;4.22;3.00;;;18.50;71.20;;;;;;5052123;28;20463;-75
2021/08/05 03:38:08;;;;;;;4.18;2.70;;;18.50;71.00;;;;;;5051754;28;20037;-75
2021/08/05 03:40:34;;;;;;;2.90;2.40;;;18.60;70.90;;;;;;5051798;28;20028;-75
2021/08/05 03:42:59;;;;;;;3.78;2.53;;;18.60;70.70;;;;;;5050928;28;20717;-77
2021/08/05 03:45:28;;;;;;;2.90;2.60;;;18.70;70.50;;;;;;5049371;28;20534;-76
2021/08/05 03:47:53;;;;;;;2.60;2.40;;;18.70;70.70;;;;;;5052035;28;20380;-77
2021/08/05 03:50:19;;;;;;;2.42;2.22;;;18.70;70.40;;;;;;5052653;28;20151;-76
2021/08/05 03:52:44;;;;;;;3.28;2.70;;;18.70;70.40;;;;;;5052185;28;20361;-76
2021/08/05 03:55:13;;;;;;;2.45;2.25;;;18.70;71.00;;;;;;5044517;28;20025;-76
2021/08/05 03:57:38;;;;;;;2.40;2.20;;;18.70;70.40;;;;;;5051968;28;20112;-76
2021/08/05 04:00:04;;;;;;;2.35;2.15;;;18.70;70.50;;;;;;5042290;28;20110;-76
2021/08/05 04:02:30;;;;;;;2.47;2.28;;;18.60;70.50;;;;;;5052155;28;20140;-76
2021/08/05 04:04:55;;;;;;;2.88;2.55;;;18.60;70.60;;;;;;5046487;28;20566;-76
2021/08/05 04:07:21;;;;;;;2.58;2.38;;;18.50;70.80;;;;;;5041437;28;20044;-76
2021/08/05 04:09:47;;;;;;;2.60;2.40;;;18.50;70.90;;;;;;5050496;28;20381;-77
2021/08/05 04:12:13;;;;;;;3.53;2.42;;;18.50;71.00;;;;;;5050822;28;20526;-76
2021/08/05 04:14:39;;;;;;;4.63;2.55;;;18.60;70.90;;;;;;5052610;28;20029;-76
2021/08/05 04:17:04;;;;;;;4.18;2.83;;;18.60;70.90;;;;;;5048377;28;20029;-76
2021/08/05 04:19:30;;;;;;;3.38;3.00;;;18.60;70.80;;;;;;5052205;28;20614;-77
2021/08/05 04:21:55;;;;;;;3.33;2.60;;;18.50;70.70;;;;;;5052320;28;20037;-76
2021/08/05 04:24:21;;;;;;;2.47;2.25;;;18.50;70.80;;;;;;5051580;28;20025;-77
2021/08/05 04:26:46;;;;;;;2.95;2.63;;;18.60;70.80;;;;;;5050647;28;20041;-76
2021/08/05 04:29:12;;;;;;;3.33;2.40;;;18.50;70.80;;;;;;5043581;28;20087;-76
2021/08/05 04:31:37;;;;;;;2.72;2.10;;;18.50;70.90;;;;;;5047442;28;20020;-76
2021/08/05 04:34:03;;;;;;;2.47;2.28;;;18.50;71.20;;;;;;5046346;28;20090;-77
2021/08/05 04:36:28;;;;;;;3.00;2.70;;;18.50;71.40;;;;;;5051354;28;20393;-76
2021/08/05 04:38:54;;;;;;;3.45;2.70;;;18.50;71.40;;;;;;5051896;28;20486;-76
2021/08/05 04:41:19;;;;;;;3.28;2.65;;;18.50;71.30;;;;;;5051286;28;20127;-76
2021/08/05 04:43:45;;;;;;;2.78;2.47;;;18.50;71.40;;;;;;5050418;28;20021;-77
2021/08/05 04:46:11;;;;;;;3.20;2.90;;;18.50;71.30;;;;;;5051503;28;20408;-76
2021/08/05 04:48:36;;;;;;;2.78;2.47;;;18.50;71.30;;;;;;5039488;28;20118;-75
2021/08/05 04:51:02;;;;;;;2.97;2.67;;;18.50;71.40;;;;;;5052014;28;20025;-75
2021/08/05 04:53:27;;;;;;;3.30;2.58;;;18.50;71.40;;;;;;5051441;28;20069;-76
2021/08/05 04:55:53;;;;;;;3.20;2.90;;;18.60;71.30;;;;;;5043791;28;20021;-76
2021/08/05 04:58:18;;;;;;;4.55;3.03;;;18.60;71.30;;;;;;5051899;28;20040;-76
2021/08/05 05:00:44;;;;;;;3.70;2.67;;;18.60;71.20;;;;;;5051928;28;20013;-76
2021/08/05 05:03:10;;;;;;;3.30;2.85;;;18.60;71.10;;;;;;5049132;28;20025;-76
2021/08/05 05:05:37;;;;;;;4.15;3.30;;;18.60;71.20;;;;;;5046145;28;20365;-76
2021/08/05 05:08:16;;;;;;;4.45;3.35;;;18.60;71.20;;;;;;5050860;28;20039;-76
2021/08/05 05:10:42;;;;;;;4.22;3.80;;;18.60;71.80;;;;;;5049957;28;20024;-77
2021/08/05 05:13:07;;;;;;;3.95;3.55;;;18.60;71.20;;;;;;5050550;28;20360;-77
2021/08/05 05:15:33;;;;;;;5.03;4.07;;;18.60;71.30;;;;;;5048159;28;20124;-76
2021/08/05 05:17:58;;;;;;;4.20;3.80;;;18.50;71.50;;;;;;5038947;28;20028;-76
2021/08/05 05:20:24;;;;;;;5.45;4.22;;;18.50;71.70;;;;;;5041679;28;20053;-78
2021/08/05 05:22:50;;;;;;;4.88;4.38;;;18.40;71.90;;;;;;5048386;28;20029;-77
2021/08/05 05:25:15;;;;;;;4.70;4.30;;;18.40;72.00;;;;;;5048723;28;20088;-76
2021/08/05 05:27:42;;;;;;;7.82;4.93;;;18.40;72.20;;;;;;5050754;28;20078;-77
2021/08/05 05:30:09;;;;;;;5.50;3.92;;;18.40;72.40;;;;;;5045449;28;20036;-76
2021/08/05 05:32:36;;;;;;;7.55;4.95;;;18.40;72.40;;;;;;5038938;28;20468;-76
2021/08/05 05:35:02;;;;;;;3.42;2.88;;;18.40;72.40;;;;;;5046374;28;20033;-77
2021/08/05 05:37:28;;;;;;;5.43;4.60;;;18.50;72.30;;;;;;5045308;28;20033;-76
2021/08/05 05:39:54;;;;;;;4.50;4.10;;;18.40;72.30;;;;;;5036271;28;20026;-77
2021/08/05 05:42:22;;;;;;;4.90;4.30;;;18.50;72.30;;;;;;5036806;28;20037;-77
2021/08/05 05:44:48;;;;;;;4.22;3.53;;;18.50;72.20;;;;;;5048112;28;20021;-78
2021/08/05 05:47:14;;;;;;;3.40;2.85;;;18.60;72.10;;;;;;5047755;28;20045;-78
2021/08/05 05:49:39;;;;;;;4.72;3.80;;;18.70;71.90;;;;;;5041329;28;20029;-78
2021/08/05 05:52:06;;;;;;;4.07;3.58;;;18.60;71.90;;;;;;5048071;28;20033;-77
2021/08/05 05:54:31;;;;;;;4.28;3.70;;;18.70;71.80;;;;;;5044011;28;20027;-77
2021/08/05 05:56:59;;;;;;;3.67;3.13;;;18.70;71.80;;;;;;5048648;28;20032;-77
2021/08/05 05:59:25;;;;;;;3.95;3.35;;;18.80;71.70;;;;;;5044326;28;20017;-78
2021/08/05 06:01:51;;;;;;;5.28;4.78;;;18.80;71.50;;;;;;5046816;28;20047;-79
2021/08/05 06:04:20;;;;;;;4.43;4.00;;;18.80;71.60;;;;;;5039736;28;20028;-77
2021/08/05 06:06:45;;;;;;;3.75;3.42;;;18.80;71.70;;;;;;5049492;28;20028;-78
2021/08/05 06:09:11;;;;;;;4.85;4.28;;;18.80;71.70;;;;;;5047465;28;20383;-82
2021/08/05 06:11:36;;;;;;;3.75;3.45;;;18.90;71.60;;;;;;5048254;28;20033;-80
2021/08/05 06:14:02;;;;;;;4.10;3.58;;;18.90;71.40;;;;;;5049085;28;20386;-80
2021/08/05 06:16:28;;;;;;;3.55;3.25;;;19.00;71.30;;;;;;5043169;28;20131;-80
2021/08/05 06:18:53;;;;;;;4.03;3.63;;;19.00;71.20;;;;;;5046752;28;20119;-79
2021/08/05 06:21:19;;;;;;;4.18;3.50;;;19.10;71.10;;;;;;5045965;28;20464;-79
2021/08/05 06:23:44;;;;;;;5.47;4.78;;;19.10;71.00;;;;;;5042141;28;20439;-79
2021/08/05 06:26:10;;;;;;;5.20;4.25;;;19.00;71.20;;;;;;5036246;28;20036;-80
2021/08/05 06:28:36;;;;;;;4.18;3.78;;;19.00;71.20;;;;;;5035073;28;20500;-79
2021/08/05 06:31:03;;;;;;;3.42;3.10;;;19.00;71.20;;;;;;5039403;28;20487;-79
2021/08/05 06:33:29;;;;;;;2.60;2.40;;;19.10;71.20;;;;;;5043068;28;20033;-79
2021/08/05 06:35:54;;;;;;;7.35;4.95;;;19.00;71.10;;;;;;5045038;28;20047;-79
2021/08/05 06:38:20;;;;;;;3.85;3.45;;;18.90;71.60;;;;;;5048316;28;20104;-78
2021/08/05 06:40:46;;;;;;;5.20;4.70;;;18.90;71.50;;;;;;5034100;28;20698;-79
2021/08/05 06:43:12;;;;;;;5.13;4.65;;;18.90;71.60;;;;;;5047182;28;20094;-79
2021/08/05 06:45:38;;;;;;;4.75;4.28;;;18.80;71.80;;;;;;5046002;28;20039;-78
2021/08/05 06:48:03;;;;;;;5.05;4.55;;;18.90;71.90;;;;;;5047914;28;20041;-79
2021/08/05 06:50:29;;;;;;;4.50;4.10;;;18.90;71.70;;;;;;5048666;28;20033;-79
2021/08/05 06:52:55;;;;;;;4.65;4.15;;;19.00;71.60;;;;;;5033929;28;20029;-77
2021/08/05 06:55:21;;;;;;;5.25;4.72;;;19.10;71.40;;;;;;5043589;28;20049;-76
2021/08/05 06:57:46;;;;;;;6.50;5.72;;;19.20;71.30;;;;;;5040103;28;20104;-77
2021/08/05 07:00:14;;;;;;;6.57;5.90;;;19.10;71.40;;;;;;5048074;28;20108;-76
2021/08/05 07:02:39;;;;;;;6.63;5.88;;;19.10;71.50;;;;;;5043390;28;20677;-77
2021/08/05 07:05:09;;;;;;;5.57;4.90;;;19.10;71.60;;;;;;5037396;28;20028;-75
2021/08/05 07:07:35;;;;;;;4.70;4.22;;;19.10;71.60;;;;;;5033090;28;20175;-77
2021/08/05 07:10:02;;;;;;;4.47;4.07;;;19.10;71.50;;;;;;5046996;28;20103;-76
2021/08/05 07:12:28;;;;;;;4.05;3.60;;;19.20;71.40;;;;;;5049442;28;20036;-77
2021/08/05 07:14:53;;;;;;;4.45;4.03;;;19.30;71.20;;;;;;5049649;28;20094;-77
2021/08/05 07:17:19;;;;;;;6.10;4.78;;;19.30;71.40;;;;;;5049116;28;20037;-77
2021/08/05 07:19:44;;;;;;;5.13;4.63;;;19.30;71.50;;;;;;5049722;28;20021;-78
2021/08/05 07:22:10;;;;;;;4.63;4.22;;;19.30;71.50;;;;;;5038096;28;20025;-76
2021/08/05 07:24:36;;;;;;;5.40;4.90;;;19.40;71.40;;;;;;5047391;28;20106;-78
2021/08/05 07:27:02;;;;;;;6.85;6.15;;;19.50;71.20;;;;;;5050293;28;20044;-77
2021/08/05 07:29:29;;;;;;;6.53;5.82;;;19.60;71.10;;;;;;5045299;28;20028;-76
2021/08/05 07:31:55;;;;;;;9.00;7.30;;;19.60;71.00;;;;;;5051548;28;20025;-77
2021/08/05 07:34:22;;;;;;;6.10;5.50;;;19.60;71.00;;;;;;5048232;28;20689;-76
2021/08/05 07:36:47;;;;;;;6.00;5.40;;;19.60;71.10;;;;;;5047248;28;20021;-76
2021/08/05 07:39:13;;;;;;;5.90;5.20;;;19.60;71.10;;;;;;5045678;28;20029;-79
2021/08/05 07:41:38;;;;;;;8.30;6.97;;;19.70;71.10;;;;;;5048462;28;20079;-79
2021/08/05 07:44:05;;;;;;;5.72;4.95;;;19.60;71.30;;;;;;5050114;28;20025;-77
2021/08/05 07:46:34;;;;;;;7.68;6.88;;;19.60;71.50;;;;;;5047910;28;20056;-78
2021/08/05 07:48:59;;;;;;;6.85;5.50;;;19.60;71.80;;;;;;5051584;28;20025;-79
2021/08/05 07:51:26;;;;;;;6.18;5.57;;;19.70;71.70;;;;;;5048576;28;20025;-79
2021/08/05 07:53:52;;;;;;;6.05;5.00;;;19.80;71.60;;;;;;5038716;28;20076;-79
2021/08/05 07:56:20;;;;;;;7.43;6.68;;;19.90;71.30;;;;;;5049182;28;20024;-78
2021/08/05 07:58:46;;;;;;;5.25;4.75;;;20.00;71.30;;;;;;5051562;28;20082;-77
2021/08/05 08:01:14;;;;;;;7.82;6.35;;;20.10;71.00;;;;;;5045919;28;20020;-77
2021/08/05 08:03:40;;;;;;;6.85;6.10;;;20.20;70.70;;;;;;5049985;28;20021;-77
2021/08/05 08:06:06;;;;;;;7.10;6.40;;;20.40;70.20;;;;;;5048514;28;20510;-86
2021/08/05 08:08:32;;;;;;;8.13;6.60;;;20.50;69.90;;;;;;5036252;28;20032;-83
2021/08/05 08:10:58;;;;;;;7.57;6.88;;;20.60;69.60;;;;;;5042685;28;20029;-83
2021/08/05 08:13:24;;;;;;;7.05;5.50;;;20.80;69.30;;;;;;5045166;28;20078;-81
2021/08/05 08:15:56;;;;;;;7.65;6.85;;;20.90;68.90;;;;;;5046238;28;20037;-82
2021/08/05 08:18:21;;;;;;;8.20;7.22;;;21.00;68.60;;;;;;5049702;28;20208;-82
2021/08/05 08:20:51;;;;;;;6.90;5.65;;;21.10;68.30;;;;;;5046006;28;20025;-85
2021/08/05 08:23:17;;;;;;;7.70;6.25;;;21.20;68.00;;;;;;5037263;28;20029;-83
2021/08/05 08:25:42;;;;;;;6.50;5.80;;;21.30;67.80;;;;;;5040938;28;20391;-85
2021/08/05 08:28:08;;;;;;;6.85;5.70;;;21.50;67.70;;;;;;5047893;28;20033;-84
2021/08/05 08:30:35;;;;;;;7.28;6.00;;;21.50;67.50;;;;;;5046486;28;20032;-86
2021/08/05 08:33:03;;;;;;;7.88;6.25;;;21.60;67.50;;;;;;5041346;28;20055;-86
2021/08/05 08:35:29;;;;;;;6.22;5.22;;;21.70;67.20;;;;;;5045660;28;20403;-84
2021/08/05 08:37:55;;;;;;;5.82;4.90;;;21.80;67.00;;;;;;5036812;28;20037;-81
2021/08/05 08:40:22;;;;;;;6.95;6.25;;;21.90;66.70;;;;;;5041734;28;20103;-82
2021/08/05 08:42:48;;;;;;;6.47;5.30;;;21.90;66.40;;;;;;5034953;28;20022;-82
2021/08/05 08:45:14;;;;;;;6.50;5.90;;;22.00;66.30;;;;;;5047725;28;20021;-81
2021/08/05 08:47:43;;;;;;;6.75;5.95;;;22.10;66.10;;;;;;5039597;28;20526;-80
2021/08/05 08:50:09;;;;;;;8.40;7.47;;;22.20;65.80;;;;;;5044157;28;20031;-83
2021/08/05 08:52:37;;;;;;;7.82;7.03;;;22.30;65.50;;;;;;5038145;28;20022;-82
2021/08/05 08:55:04;;;;;;;8.65;7.85;;;22.40;65.10;;;;;;5046592;28;20066;-83
2021/08/05 08:57:32;;;;;;;9.20;8.20;;;22.40;65.40;;;;;;5055568;28;20021;-81
2021/08/05 08:59:59;;;;;;;7.63;6.80;;;22.50;64.50;;;;;;5043093;28;20028;-82
2021/08/05 09:02:25;;;;;;;10.05;8.93;;;22.60;64.50;;;;;;5044599;28;20025;-81
2021/08/05 09:04:52;;;;;;;8.80;7.43;;;22.80;64.20;;;;;;5044679;28;20029;-81
2021/08/05 09:07:18;;;;;;;11.10;9.60;;;23.00;63.50;;;;;;5047701;28;20037;-83
2021/08/05 09:09:43;;;;;;;9.13;7.80;;;23.00;63.10;;;;;;5046776;28;20108;-81
2021/08/05 09:12:15;;;;;;;7.95;7.15;;;23.10;63.10;;;;;;5044046;28;20068;-82
2021/08/05 09:14:52;;;;;;;7.10;6.18;;;23.20;63.40;;;;;;5041757;28;20028;-84
2021/08/05 09:17:24;;;;;;;7.57;5.85;;;23.40;62.50;;;;;;5046175;28;20091;-83
2021/08/05 09:19:52;;;;;;;9.30;8.40;;;23.60;62.10;;;;;;5048856;28;20101;-82
2021/08/05 09:22:42;;;;;;;9.40;8.40;;;23.40;61.00;;;;;;5042207;28;20499;-85
2021/08/05 09:25:20;;;;;;;7.80;7.00;;;23.40;61.20;;;;;;5044762;28;20025;-83
2021/08/05 09:27:50;;;;;;;10.95;9.85;;;23.60;61.10;;;;;;5043079;28;21052;-83
2021/08/05 09:30:38;;;;;;;8.90;8.00;;;23.70;59.60;;;;;;5044323;28;20079;-84
2021/08/05 09:33:05;;;;;;;8.13;7.32;;;23.80;59.70;;;;;;5046041;28;20036;-86
2021/08/05 09:35:31;;;;;;;8.02;6.85;;;23.90;59.80;;;;;;5031800;28;20087;-84
2021/08/05 09:38:20;;;;;;;7.32;6.47;;;24.10;59.70;;;;;;5039446;28;20546;-84
2021/08/05 09:40:46;;;;;;;7.40;6.50;;;24.30;59.60;;;;;;5028947;28;20155;-83
2021/08/05 09:43:12;;;;;;;9.02;8.13;;;24.40;59.30;;;;;;5044723;28;20511;-86
2021/08/05 09:45:41;;;;;;;6.97;6.28;;;24.50;58.90;;;;;;5039703;28;20103;-79
2021/08/05 09:48:07;;;;;;;9.95;8.90;;;24.60;58.60;;;;;;5042882;28;20047;-85
2021/08/05 09:50:33;;;;;;;10.20;8.90;;;24.70;57.90;;;;;;5045490;28;20551;-82
2021/08/05 09:53:10;;;;;;;7.63;6.85;;;24.80;57.40;;;;;;5042710;28;20033;-74
2021/08/05 09:55:36;;;;;;;10.65;9.55;;;24.80;57.90;;;;;;5045819;28;20048;-73
2021/08/05 09:58:03;;;;;;;12.93;11.43;;;24.60;56.20;;;;;;5039917;28;20037;-76
2021/08/05 10:00:42;;;;;;;13.25;11.90;;;24.60;56.10;;;;;;5036962;28;20065;-76
2021/08/05 10:03:08;;;;;;;10.07;9.07;;;24.50;55.90;;;;;;5041942;28;20487;-75
2021/08/05 10:05:34;;;;;;;10.15;9.13;;;24.50;56.10;;;;;;5043586;28;20036;-76
2021/08/05 10:08:01;;;;;;;7.13;6.18;;;24.60;56.30;;;;;;5046847;28;20499;-76
2021/08/05 10:10:47;;;;;;;13.20;11.88;;;24.80;56.30;;;;;;5045034;28;20024;-76
2021/08/05 10:13:13;;;;;;;8.15;7.35;;;24.80;54.90;;;;;;5040475;28;20041;-78
2021/08/05 10:15:52;;;;;;;7.47;6.63;;;24.70;55.50;;;;;;5041064;28;20021;-77
2021/08/05 10:18:19;;;;;;;9.15;8.25;;;24.80;55.50;;;;;;5045034;28;20029;-77
2021/08/05 10:20:45;;;;;;;9.43;8.52;;;24.70;54.90;;;;;;5036068;28;20657;-77
2021/08/05 10:23:11;;;;;;;8.43;7.35;;;24.90;54.90;;;;;;5046747;28;20102;-76
2021/08/05 10:25:37;;;;;;;9.48;8.57;;;25.10;55.00;;;;;;5038071;28;20456;-76
2021/08/05 10:28:03;;;;;;;8.13;7.32;;;25.10;54.10;;;;;;5041197;28;20048;-77
2021/08/05 10:30:30;;;;;;;13.95;12.50;;;25.10;53.60;;;;;;5042188;28;20025;-76
2021/08/05 10:32:56;;;;;;;12.40;11.20;;;25.00;53.20;;;;;;5048328;28;20124;-76
2021/08/05 10:35:23;;;;;;;10.15;9.15;;;25.00;52.90;;;;;;5043301;28;20107;-77
2021/08/05 10:37:49;;;;;;;10.70;9.70;;;25.10;53.10;;;;;;5045684;28;20029;-76
2021/08/05 10:40:16;;;;;;;7.82;7.10;;;25.30;52.80;;;;;;5044611;28;20036;-76
2021/08/05 10:42:43;;;;;;;7.35;6.03;;;25.30;51.80;;;;;;5049231;28;20120;-76
2021/08/05 10:45:10;;;;;;;6.50;5.50;;;25.50;52.10;;;;;;5046078;28;20033;-77
2021/08/05 10:47:38;;;;;;;7.50;6.80;;;25.70;52.10;;;;;;5048558;28;20150;-77
2021/08/05 10:50:14;;;;;;;12.00;10.80;;;25.80;51.10;;;;;;5052717;28;20075;-77
2021/08/05 10:52:44;;;;;;;10.48;9.15;;;25.60;50.70;;;;;;5051762;28;20090;-77
2021/08/05 10:55:15;;;;;;;7.18;6.47;;;25.60;51.20;;;;;;5044214;28;20056;-77
2021/08/05 10:57:41;;;;;;;11.50;10.15;;;25.60;51.60;;;;;;5050219;28;20439;-77
2021/08/05 11:00:09;;;;;;;8.15;7.35;;;25.70;50.80;;;;;;5042913;28;20018;-77
2021/08/05 11:02:46;;;;;;;7.88;7.07;;;25.70;50.20;;;;;;5043811;28;20106;-77
2021/08/05 11:05:37;;;;;;;7.05;6.35;;;25.50;50.30;;;;;;5039685;28;20033;-75
2021/08/05 11:08:09;;;;;;;7.05;6.35;;;25.50;49.60;;;;;;5043832;28;20040;-75
2021/08/05 11:10:38;;;;;;;8.85;7.38;;;25.60;50.10;;;;;;5038328;28;20037;-77
2021/08/05 11:13:09;;;;;;;7.80;7.00;;;25.80;50.00;;;;;;5046946;28;20387;-76
2021/08/05 11:15:35;;;;;;;8.27;7.47;;;26.00;49.70;;;;;;5042674;28;20037;-77
2021/08/05 11:18:21;;;;;;;6.32;5.72;;;26.00;49.40;;;;;;5042842;28;20085;-78
2021/08/05 11:21:13;;;;;;;7.60;6.72;;;26.10;49.50;;;;;;5047378;28;20025;-75
2021/08/05 11:23:39;;;;;;;10.83;9.73;;;26.00;48.50;;;;;;5046372;28;20025;-75
2021/08/05 11:26:10;;;;;;;6.30;5.70;;;26.00;47.00;;;;;;5064610;28;20021;-75
2021/08/05 11:28:41;;;;;;;6.53;4.50;;;26.00;47.50;;;;;;5047944;28;20029;-76
2021/08/05 11:31:22;;;;;;;8.60;7.80;;;26.20;48.00;;;;;;5035929;28;20388;-76
2021/08/05 11:33:53;;;;;;;6.07;5.40;;;26.30;47.70;;;;;;5046148;28;20037;-77
2021/08/05 11:36:20;;;;;;;6.80;5.37;;;26.30;47.00;;;;;;5040673;28;20048;-77
2021/08/05 11:38:58;;;;;;;5.97;4.72;;;26.40;47.20;;;;;;5048536;28;20151;-77
2021/08/05 11:41:44;;;;;;;4.68;3.33;;;26.70;47.30;;;;;;5051309;28;20033;-75
2021/08/05 11:44:42;;;;;;;9.98;7.32;;;27.00;47.30;;;;;;5042037;28;20384;-77
2021/08/05 11:47:32;;;;;;;6.50;5.88;;;26.70;45.90;;;;;;5045228;28;20033;-76
2021/08/05 11:50:21;;;;;;;8.73;7.93;;;26.70;46.70;;;;;;5048926;28;20091;-77
2021/08/05 11:52:50;;;;;;;8.73;7.68;;;27.00;45.70;;;;;;5045497;28;20033;-79
2021/08/05 11:55:22;;;;;;;8.68;7.78;;;27.20;44.90;;;;;;5042731;28;20502;-76
2021/08/05 11:57:53;;;;;;;11.75;10.23;;;27.00;44.50;;;;;;5050188;28;20029;-76
2021/08/05 12:00:21;;;;;;;11.47;10.27;;;27.00;45.10;;;;;;5051199;28;20027;-77
2021/08/05 12:02:49;;;;;;;9.63;8.65;;;26.90;47.30;;;;;;5045317;28;20345;-79
2021/08/05 12:05:16;;;;;;;15.55;14.05;;;26.60;48.40;;;;;;5045608;28;20024;-80
2021/08/05 12:07:50;;;;;;;11.00;9.80;;;26.60;48.90;;;;;;5049769;28;20124;-81
2021/08/05 12:10:24;;;;;;;16.20;14.52;;;26.60;49.30;;;;;;5047712;28;20094;-79
2021/08/05 12:12:54;;;;;;;9.20;8.30;;;26.40;49.20;;;;;;5050890;28;20057;-79
2021/08/05 12:15:39;;;;;;;9.95;8.95;;;26.40;50.10;;;;;;5050956;28;20033;-77
2021/08/05 12:18:09;;;;;;;10.40;9.40;;;26.70;49.10;;;;;;5038328;28;20029;-77
2021/08/05 12:20:42;;;;;;;11.45;10.25;;;26.50;49.30;;;;;;5044165;28;20025;-76
2021/08/05 12:23:23;;;;;;;11.10;10.05;;;26.60;49.10;;;;;;5049258;28;20032;-76
2021/08/05 12:26:06;;;;;;;15.23;13.73;;;26.50;49.40;;;;;;5042521;28;20031;-75
2021/08/05 12:28:35;;;;;;;9.30;8.40;;;26.20;49.10;;;;;;5047856;28;20036;-77
2021/08/05 12:31:03;;;;;;;8.38;7.57;;;26.30;49.70;;;;;;5049425;28;20052;-76
2021/08/05 12:33:40;;;;;;;9.50;8.50;;;26.50;49.60;;;;;;5040902;28;20041;-76
2021/08/05 12:36:13;;;;;;;14.35;12.90;;;26.60;49.40;;;;;;5046186;28;20060;-77
2021/08/05 12:38:43;;;;;;;12.82;11.52;;;26.10;48.90;;;;;;5048512;28;20033;-76
2021/08/05 12:41:09;;;;;;;11.80;10.63;;;25.60;50.70;;;;;;5049708;28;20055;-75
2021/08/05 12:43:40;;;;;;;10.57;9.57;;;25.30;50.80;;;;;;5038259;28;20388;-76
2021/08/05 12:46:11;;;;;;;8.63;7.82;;;25.10;51.10;;;;;;5047483;28;20036;-76
2021/08/05 12:48:41;;;;;;;9.65;8.70;;;24.90;51.50;;;;;;5048055;28;20078;-76
2021/08/05 12:51:13;;;;;;;13.18;10.73;;;24.80;52.10;;;;;;5036280;28;20503;-77